sensor_id;sensor_type;location;lat;lon;timestamp;P1;durP1;ratioP1;P2;durP2;ratioP2
56657;SDS011;42530;52.240;19.354;2022-08-21T00:01:55;2.80;;;2.70;;
56657;SDS011;42530;52.240;19.354;2022-08-21T00:04:21;4.65;;;4.20;;
56657;SDS011;42530;52.240;19.354;2022-08-21T00:06:47;2.65;;;2.55;;
56657;SDS011;42530;52.240;19.354;2022-08-21T00:09:13;2.05;;;1.95;;
56657;SDS011;42530;52.240;19.354;2022-08-21T00:11:38;1.95;;;1.95;;
56657;SDS011;42530;52.240;19.354;2022-08-21T00:14:05;1.83;;;1.73;;
56657;SDS011;42530;52.240;19.354;2022-08-21T00:16:32;11.75;;;3.92;;
56657;SDS011;42530;52.240;19.354;2022-08-21T00:18:58;1.17;;;1.17;;
56657;SDS011;42530;52.240;19.354;2022-08-21T00:21:24;3.20;;;2.35;;
56657;SDS011;42530;52.240;19.354;2022-08-21T00:23:50;2.15;;;2.05;;
56657;SDS011;42530;52.240;19.354;2022-08-21T00:26:16;8.73;;;2.83;;
56657;SDS011;42530;52.240;19.354;2022-08-21T00:28:42;4.57;;;4.18;;
56657;SDS011;42530;52.240;19.354;2022-08-21T00:31:07;2.45;;;2.25;;
56657;SDS011;42530;52.240;19.354;2022-08-21T00:33:33;2.83;;;2.72;;
56657;SDS011;42530;52.240;19.354;2022-08-21T00:35:59;2.72;;;2.55;;
56657;SDS011;42530;52.240;19.354;2022-08-21T00:38:24;4.00;;;3.75;;
56657;SDS011;42530;52.240;19.354;2022-08-21T00:40:51;2.95;;;2.80;;
56657;SDS011;42530;52.240;19.354;2022-08-21T00:43:26;5.97;;;4.15;;
56657;SDS011;42530;52.240;19.354;2022-08-21T00:45:54;5.20;;;3.90;;
56657;SDS011;42530;52.240;19.354;2022-08-21T00:48:21;4.00;;;3.70;;
56657;SDS011;42530;52.240;19.354;2022-08-21T00:50:51;4.47;;;4.18;;
56657;SDS011;42530;52.240;19.354;2022-08-21T00:53:23;2.67;;;2.47;;
56657;SDS011;42530;52.240;19.354;2022-08-21T00:55:50;3.08;;;2.80;;
56657;SDS011;42530;52.240;19.354;2022-08-21T00:58:16;3.28;;;3.00;;
56657;SDS011;42530;52.240;19.354;2022-08-21T01:00:42;4.03;;;3.83;;
56657;SDS011;42530;52.240;19.354;2022-08-21T01:03:10;3.22;;;3.05;;
56657;SDS011;42530;52.240;19.354;2022-08-21T01:05:43;4.32;;;4.07;;
56657;SDS011;42530;52.240;19.354;2022-08-21T01:08:09;7.68;;;3.42;;
56657;SDS011;42530;52.240;19.354;2022-08-21T01:10:35;6.80;;;3.05;;
56657;SDS011;42530;52.240;19.354;2022-08-21T01:13:02;3.15;;;3.05;;
56657;SDS011;42530;52.240;19.354;2022-08-21T01:15:32;3.22;;;3.00;;
56657;SDS011;42530;52.240;19.354;2022-08-21T01:18:01;3.47;;;3.28;;
56657;SDS011;42530;52.240;19.354;2022-08-21T01:20:28;2.80;;;2.65;;
56657;SDS011;42530;52.240;19.354;2022-08-21T01:22:54;2.33;;;2.22;;
56657;SDS011;42530;52.240;19.354;2022-08-21T01:25:20;3.05;;;2.95;;
56657;SDS011;42530;52.240;19.354;2022-08-21T01:27:45;1.70;;;1.70;;
56657;SDS011;42530;52.240;19.354;2022-08-21T01:30:13;2.60;;;2.50;;
56657;SDS011;42530;52.240;19.354;2022-08-21T01:32:43;2.83;;;2.72;;
56657;SDS011;42530;52.240;19.354;2022-08-21T01:35:09;5.20;;;5.00;;
56657;SDS011;42530;52.240;19.354;2022-08-21T01:37:36;3.45;;;3.25;;
56657;SDS011;42530;52.240;19.354;2022-08-21T01:40:02;2.63;;;2.45;;
56657;SDS011;42530;52.240;19.354;2022-08-21T01:42:29;4.75;;;4.45;;
56657;SDS011;42530;52.240;19.354;2022-08-21T01:44:55;4.32;;;4.05;;
56657;SDS011;42530;52.240;19.354;2022-08-21T01:47:21;4.47;;;4.20;;
56657;SDS011;42530;52.240;19.354;2022-08-21T01:49:47;5.15;;;4.80;;
56657;SDS011;42530;52.240;19.354;2022-08-21T01:52:13;5.75;;;5.30;;
56657;SDS011;42530;52.240;19.354;2022-08-21T01:54:39;2.70;;;2.38;;
56657;SDS011;42530;52.240;19.354;2022-08-21T01:57:05;2.72;;;1.90;;
56657;SDS011;42530;52.240;19.354;2022-08-21T01:59:31;2.80;;;2.60;;
56657;SDS011;42530;52.240;19.354;2022-08-21T02:01:57;3.05;;;2.95;;
56657;SDS011;42530;52.240;19.354;2022-08-21T02:04:23;2.60;;;2.50;;
56657;SDS011;42530;52.240;19.354;2022-08-21T02:06:49;2.75;;;2.65;;
56657;SDS011;42530;52.240;19.354;2022-08-21T02:09:15;3.83;;;3.67;;
56657;SDS011;42530;52.240;19.354;2022-08-21T02:11:41;6.30;;;3.78;;
56657;SDS011;42530;52.240;19.354;2022-08-21T02:14:08;4.07;;;3.67;;
56657;SDS011;42530;52.240;19.354;2022-08-21T02:16:39;4.32;;;4.13;;
56657;SDS011;42530;52.240;19.354;2022-08-21T02:19:05;7.63;;;4.30;;
56657;SDS011;42530;52.240;19.354;2022-08-21T02:21:31;3.47;;;3.17;;
56657;SDS011;42530;52.240;19.354;2022-08-21T02:23:56;2.35;;;2.15;;
56657;SDS011;42530;52.240;19.354;2022-08-21T02:26:22;8.68;;;3.75;;
56657;SDS011;42530;52.240;19.354;2022-08-21T02:28:48;5.53;;;3.17;;
56657;SDS011;42530;52.240;19.354;2022-08-21T02:31:13;3.72;;;2.75;;
56657;SDS011;42530;52.240;19.354;2022-08-21T02:33:39;3.40;;;3.22;;
56657;SDS011;42530;52.240;19.354;2022-08-21T02:36:05;3.13;;;3.03;;
56657;SDS011;42530;52.240;19.354;2022-08-21T02:38:33;3.10;;;2.90;;
56657;SDS011;42530;52.240;19.354;2022-08-21T02:41:03;2.63;;;2.53;;
56657;SDS011;42530;52.240;19.354;2022-08-21T02:43:31;3.90;;;3.60;;
56657;SDS011;42530;52.240;19.354;2022-08-21T02:45:56;6.47;;;4.25;;
56657;SDS011;42530;52.240;19.354;2022-08-21T02:48:25;2.25;;;2.20;;
56657;SDS011;42530;52.240;19.354;2022-08-21T02:51:00;3.60;;;3.40;;
56657;SDS011;42530;52.240;19.354;2022-08-21T02:53:31;4.30;;;3.58;;
56657;SDS011;42530;52.240;19.354;2022-08-21T02:55:59;3.40;;;2.15;;
56657;SDS011;42530;52.240;19.354;2022-08-21T02:58:27;3.72;;;3.42;;
56657;SDS011;42530;52.240;19.354;2022-08-21T03:00:56;1.77;;;1.67;;
56657;SDS011;42530;52.240;19.354;2022-08-21T03:03:23;2.30;;;2.20;;
56657;SDS011;42530;52.240;19.354;2022-08-21T03:05:49;3.55;;;3.35;;
56657;SDS011;42530;52.240;19.354;2022-08-21T03:08:16;4.72;;;4.43;;
56657;SDS011;42530;52.240;19.354;2022-08-21T03:10:44;2.80;;;2.67;;
56657;SDS011;42530;52.240;19.354;2022-08-21T03:13:11;3.85;;;3.05;;
56657;SDS011;42530;52.240;19.354;2022-08-21T03:15:37;3.28;;;3.10;;
56657;SDS011;42530;52.240;19.354;2022-08-21T03:18:04;4.00;;;3.80;;
56657;SDS011;42530;52.240;19.354;2022-08-21T03:20:30;2.42;;;2.28;;
56657;SDS011;42530;52.240;19.354;2022-08-21T03:22:57;4.38;;;4.07;;
56657;SDS011;42530;52.240;19.354;2022-08-21T03:25:24;5.45;;;5.07;;
56657;SDS011;42530;52.240;19.354;2022-08-21T03:27:51;2.78;;;2.67;;
56657;SDS011;42530;52.240;19.354;2022-08-21T03:30:18;2.50;;;2.33;;
56657;SDS011;42530;52.240;19.354;2022-08-21T03:32:45;2.88;;;2.67;;
56657;SDS011;42530;52.240;19.354;2022-08-21T03:35:13;6.22;;;5.82;;
56657;SDS011;42530;52.240;19.354;2022-08-21T03:37:39;3.53;;;3.33;;
56657;SDS011;42530;52.240;19.354;2022-08-21T03:40:06;3.13;;;2.85;;
56657;SDS011;42530;52.240;19.354;2022-08-21T03:42:38;4.45;;;4.05;;
56657;SDS011;42530;52.240;19.354;2022-08-21T03:45:04;2.85;;;2.75;;
56657;SDS011;42530;52.240;19.354;2022-08-21T03:47:30;2.97;;;2.80;;
56657;SDS011;42530;52.240;19.354;2022-08-21T03:49:56;3.63;;;3.42;;
56657;SDS011;42530;52.240;19.354;2022-08-21T03:52:21;3.72;;;3.47;;
56657;SDS011;42530;52.240;19.354;2022-08-21T03:54:48;2.53;;;2.42;;
56657;SDS011;42530;52.240;19.354;2022-08-21T03:57:15;4.25;;;3.60;;
56657;SDS011;42530;52.240;19.354;2022-08-21T03:59:41;3.92;;;3.72;;
56657;SDS011;42530;52.240;19.354;2022-08-21T04:02:07;3.50;;;3.33;;
56657;SDS011;42530;52.240;19.354;2022-08-21T04:04:33;3.30;;;3.10;;
56657;SDS011;42530;52.240;19.354;2022-08-21T04:06:59;4.63;;;2.95;;
56657;SDS011;42530;52.240;19.354;2022-08-21T04:09:25;2.85;;;2.65;;
56657;SDS011;42530;52.240;19.354;2022-08-21T04:11:52;5.28;;;4.80;;
56657;SDS011;42530;52.240;19.354;2022-08-21T04:14:17;1.42;;;1.33;;
56657;SDS011;42530;52.240;19.354;2022-08-21T04:16:44;4.70;;;4.30;;
56657;SDS011;42530;52.240;19.354;2022-08-21T04:19:10;5.55;;;5.13;;
56657;SDS011;42530;52.240;19.354;2022-08-21T04:21:38;2.33;;;2.22;;
56657;SDS011;42530;52.240;19.354;2022-08-21T04:24:05;3.58;;;3.17;;
56657;SDS011;42530;52.240;19.354;2022-08-21T04:26:32;2.47;;;2.38;;
56657;SDS011;42530;52.240;19.354;2022-08-21T04:28:59;2.53;;;2.35;;
56657;SDS011;42530;52.240;19.354;2022-08-21T04:31:25;3.80;;;3.60;;
56657;SDS011;42530;52.240;19.354;2022-08-21T04:33:51;7.82;;;5.45;;
56657;SDS011;42530;52.240;19.354;2022-08-21T04:36:17;2.25;;;2.15;;
56657;SDS011;42530;52.240;19.354;2022-08-21T04:38:43;2.65;;;2.55;;
56657;SDS011;42530;52.240;19.354;2022-08-21T04:41:08;2.25;;;2.13;;
56657;SDS011;42530;52.240;19.354;2022-08-21T04:43:34;2.60;;;2.50;;
56657;SDS011;42530;52.240;19.354;2022-08-21T04:46:00;3.55;;;3.42;;
56657;SDS011;42530;52.240;19.354;2022-08-21T04:48:26;1.90;;;1.85;;
56657;SDS011;42530;52.240;19.354;2022-08-21T04:53:48;3.60;;;3.25;;
56657;SDS011;42530;52.240;19.354;2022-08-21T04:56:25;3.40;;;3.20;;
56657;SDS011;42530;52.240;19.354;2022-08-21T04:58:57;2.92;;;2.55;;
56657;SDS011;42530;52.240;19.354;2022-08-21T05:01:25;4.22;;;3.88;;
56657;SDS011;42530;52.240;19.354;2022-08-21T05:03:54;2.42;;;1.48;;
56657;SDS011;42530;52.240;19.354;2022-08-21T05:06:23;3.28;;;3.17;;
56657;SDS011;42530;52.240;19.354;2022-08-21T05:08:50;2.33;;;2.22;;
56657;SDS011;42530;52.240;19.354;2022-08-21T05:11:18;2.03;;;1.98;;
56657;SDS011;42530;52.240;19.354;2022-08-21T05:13:45;1.77;;;1.67;;
56657;SDS011;42530;52.240;19.354;2022-08-21T05:16:11;8.15;;;7.50;;
56657;SDS011;42530;52.240;19.354;2022-08-21T05:18:37;4.03;;;3.83;;
56657;SDS011;42530;52.240;19.354;2022-08-21T05:21:02;3.58;;;3.42;;
56657;SDS011;42530;52.240;19.354;2022-08-21T05:23:28;2.60;;;2.40;;
56657;SDS011;42530;52.240;19.354;2022-08-21T05:25:53;3.00;;;2.80;;
56657;SDS011;42530;52.240;19.354;2022-08-21T05:28:20;4.45;;;3.28;;
56657;SDS011;42530;52.240;19.354;2022-08-21T05:30:45;2.55;;;2.45;;
56657;SDS011;42530;52.240;19.354;2022-08-21T05:33:11;2.60;;;2.47;;
56657;SDS011;42530;52.240;19.354;2022-08-21T05:35:37;2.53;;;2.42;;
56657;SDS011;42530;52.240;19.354;2022-08-21T05:38:04;5.15;;;3.63;;
56657;SDS011;42530;52.240;19.354;2022-08-21T05:40:30;2.20;;;2.08;;
56657;SDS011;42530;52.240;19.354;2022-08-21T05:42:57;2.08;;;2.00;;
56657;SDS011;42530;52.240;19.354;2022-08-21T05:45:25;3.08;;;2.90;;
56657;SDS011;42530;52.240;19.354;2022-08-21T05:47:52;2.28;;;2.15;;
56657;SDS011;42530;52.240;19.354;2022-08-21T05:50:18;3.08;;;2.97;;
56657;SDS011;42530;52.240;19.354;2022-08-21T05:52:43;3.80;;;3.47;;
56657;SDS011;42530;52.240;19.354;2022-08-21T05:55:09;2.13;;;2.03;;
56657;SDS011;42530;52.240;19.354;2022-08-21T05:57:34;4.85;;;1.98;;
56657;SDS011;42530;52.240;19.354;2022-08-21T05:59:59;1.85;;;1.75;;
56657;SDS011;42530;52.240;19.354;2022-08-21T06:02:28;1.88;;;1.77;;
56657;SDS011;42530;52.240;19.354;2022-08-21T06:04:53;13.13;;;2.03;;
56657;SDS011;42530;52.240;19.354;2022-08-21T06:07:21;1.63;;;1.52;;
56657;SDS011;42530;52.240;19.354;2022-08-21T06:09:47;1.70;;;1.63;;
56657;SDS011;42530;52.240;19.354;2022-08-21T06:12:13;1.63;;;1.55;;
56657;SDS011;42530;52.240;19.354;2022-08-21T06:14:39;4.95;;;3.33;;
56657;SDS011;42530;52.240;19.354;2022-08-21T06:17:06;2.25;;;2.05;;
56657;SDS011;42530;52.240;19.354;2022-08-21T06:19:34;3.15;;;3.05;;
56657;SDS011;42530;52.240;19.354;2022-08-21T06:22:00;2.80;;;2.60;;
56657;SDS011;42530;52.240;19.354;2022-08-21T06:24:26;3.53;;;3.33;;
56657;SDS011;42530;52.240;19.354;2022-08-21T06:26:52;2.40;;;2.30;;
56657;SDS011;42530;52.240;19.354;2022-08-21T06:29:18;6.50;;;2.83;;
56657;SDS011;42530;52.240;19.354;2022-08-21T06:31:45;2.00;;;1.90;;
56657;SDS011;42530;52.240;19.354;2022-08-21T06:34:12;3.35;;;3.15;;
56657;SDS011;42530;52.240;19.354;2022-08-21T06:36:39;2.83;;;1.45;;
56657;SDS011;42530;52.240;19.354;2022-08-21T06:39:04;2.58;;;2.47;;
56657;SDS011;42530;52.240;19.354;2022-08-21T06:41:30;1.13;;;1.13;;
56657;SDS011;42530;52.240;19.354;2022-08-21T06:43:55;2.10;;;2.00;;
56657;SDS011;42530;52.240;19.354;2022-08-21T06:46:22;2.85;;;2.55;;
56657;SDS011;42530;52.240;19.354;2022-08-21T06:48:50;1.30;;;1.30;;
56657;SDS011;42530;52.240;19.354;2022-08-21T06:51:15;1.40;;;1.35;;
56657;SDS011;42530;52.240;19.354;2022-08-21T06:53:42;2.63;;;2.53;;
56657;SDS011;42530;52.240;19.354;2022-08-21T06:56:07;1.50;;;1.40;;
56657;SDS011;42530;52.240;19.354;2022-08-21T06:58:33;2.05;;;1.98;;
56657;SDS011;42530;52.240;19.354;2022-08-21T07:00:58;2.55;;;2.45;;
56657;SDS011;42530;52.240;19.354;2022-08-21T07:03:25;2.28;;;2.17;;
56657;SDS011;42530;52.240;19.354;2022-08-21T07:05:53;2.97;;;2.30;;
56657;SDS011;42530;52.240;19.354;2022-08-21T07:08:20;2.10;;;2.00;;
56657;SDS011;42530;52.240;19.354;2022-08-21T07:10:47;1.85;;;1.80;;
56657;SDS011;42530;52.240;19.354;2022-08-21T07:13:13;1.75;;;1.75;;
56657;SDS011;42530;52.240;19.354;2022-08-21T07:15:39;2.83;;;2.63;;
56657;SDS011;42530;52.240;19.354;2022-08-21T07:18:05;2.05;;;1.95;;
56657;SDS011;42530;52.240;19.354;2022-08-21T07:20:32;2.83;;;2.63;;
56657;SDS011;42530;52.240;19.354;2022-08-21T07:23:02;2.22;;;2.15;;
56657;SDS011;42530;52.240;19.354;2022-08-21T07:25:30;1.65;;;1.65;;
56657;SDS011;42530;52.240;19.354;2022-08-21T07:27:56;1.08;;;1.08;;
56657;SDS011;42530;52.240;19.354;2022-08-21T07:30:22;1.48;;;1.45;;
56657;SDS011;42530;52.240;19.354;2022-08-21T07:32:48;2.33;;;2.22;;
56657;SDS011;42530;52.240;19.354;2022-08-21T07:35:17;2.05;;;1.45;;
56657;SDS011;42530;52.240;19.354;2022-08-21T07:37:43;1.30;;;1.23;;
56657;SDS011;42530;52.240;19.354;2022-08-21T07:40:09;1.13;;;0.95;;
56657;SDS011;42530;52.240;19.354;2022-08-21T07:42:39;3.60;;;1.30;;
56657;SDS011;42530;52.240;19.354;2022-08-21T07:45:09;3.55;;;1.98;;
56657;SDS011;42530;52.240;19.354;2022-08-21T07:47:36;1.65;;;1.55;;
56657;SDS011;42530;52.240;19.354;2022-08-21T07:50:02;3.10;;;1.15;;
56657;SDS011;42530;52.240;19.354;2022-08-21T07:52:28;0.70;;;0.70;;
56657;SDS011;42530;52.240;19.354;2022-08-21T07:54:54;1.75;;;1.73;;
56657;SDS011;42530;52.240;19.354;2022-08-21T07:57:19;1.83;;;1.70;;
56657;SDS011;42530;52.240;19.354;2022-08-21T07:59:44;1.20;;;1.20;;
56657;SDS011;42530;52.240;19.354;2022-08-21T08:02:10;1.27;;;1.27;;
56657;SDS011;42530;52.240;19.354;2022-08-21T08:04:47;1.35;;;1.35;;
56657;SDS011;42530;52.240;19.354;2022-08-21T08:07:12;1.45;;;1.45;;
56657;SDS011;42530;52.240;19.354;2022-08-21T08:09:38;1.55;;;1.52;;
56657;SDS011;42530;52.240;19.354;2022-08-21T08:12:03;1.60;;;1.50;;
56657;SDS011;42530;52.240;19.354;2022-08-21T08:14:29;1.67;;;1.58;;
56657;SDS011;42530;52.240;19.354;2022-08-21T08:16:54;1.10;;;1.05;;
56657;SDS011;42530;52.240;19.354;2022-08-21T08:19:20;1.75;;;1.70;;
56657;SDS011;42530;52.240;19.354;2022-08-21T08:21:45;1.10;;;1.05;;
56657;SDS011;42530;52.240;19.354;2022-08-21T08:24:11;3.83;;;2.45;;
56657;SDS011;42530;52.240;19.354;2022-08-21T08:26:36;1.42;;;1.33;;
56657;SDS011;42530;52.240;19.354;2022-08-21T08:29:02;1.85;;;0.93;;
56657;SDS011;42530;52.240;19.354;2022-08-21T08:31:28;1.38;;;1.20;;
56657;SDS011;42530;52.240;19.354;2022-08-21T08:33:53;3.05;;;1.48;;
56657;SDS011;42530;52.240;19.354;2022-08-21T08:36:19;0.55;;;0.55;;
56657;SDS011;42530;52.240;19.354;2022-08-21T08:38:45;1.15;;;1.15;;
56657;SDS011;42530;52.240;19.354;2022-08-21T08:41:16;1.10;;;1.10;;
56657;SDS011;42530;52.240;19.354;2022-08-21T08:43:54;1.08;;;0.98;;
56657;SDS011;42530;52.240;19.354;2022-08-21T08:49:26;0.90;;;0.90;;
56657;SDS011;42530;52.240;19.354;2022-08-21T08:54:37;2.20;;;2.10;;
56657;SDS011;42530;52.240;19.354;2022-08-21T08:57:09;2.30;;;1.73;;
56657;SDS011;42530;52.240;19.354;2022-08-21T08:59:41;3.13;;;2.08;;
56657;SDS011;42530;52.240;19.354;2022-08-21T09:02:09;2.22;;;2.13;;
56657;SDS011;42530;52.240;19.354;2022-08-21T09:04:37;1.38;;;1.27;;
56657;SDS011;42530;52.240;19.354;2022-08-21T09:07:40;1.52;;;1.52;;
56657;SDS011;42530;52.240;19.354;2022-08-21T09:10:20;0.80;;;0.80;;
56657;SDS011;42530;52.240;19.354;2022-08-21T09:29:28;7.57;;;6.93;;
56657;SDS011;42530;52.240;19.354;2022-08-21T09:31:56;7.28;;;6.03;;
56657;SDS011;42530;52.240;19.354;2022-08-21T09:34:26;6.90;;;6.28;;
56657;SDS011;42530;52.240;19.354;2022-08-21T09:36:56;7.18;;;6.50;;
56657;SDS011;42530;52.240;19.354;2022-08-21T09:39:30;9.10;;;8.30;;
56657;SDS011;42530;52.240;19.354;2022-08-21T09:42:04;9.15;;;8.50;;
56657;SDS011;42530;52.240;19.354;2022-08-21T09:44:33;8.38;;;7.65;;
56657;SDS011;42530;52.240;19.354;2022-08-21T09:47:05;7.85;;;7.15;;
56657;SDS011;42530;52.240;19.354;2022-08-21T09:49:32;7.57;;;6.88;;
56657;SDS011;42530;52.240;19.354;2022-08-21T09:52:00;7.57;;;6.72;;
56657;SDS011;42530;52.240;19.354;2022-08-21T09:54:31;6.35;;;5.80;;
56657;SDS011;42530;52.240;19.354;2022-08-21T09:57:01;9.60;;;8.00;;
56657;SDS011;42530;52.240;19.354;2022-08-21T10:00:06;8.18;;;7.47;;
56657;SDS011;42530;52.240;19.354;2022-08-21T10:02:35;8.50;;;6.65;;
56657;SDS011;42530;52.240;19.354;2022-08-21T10:07:29;9.48;;;7.80;;
56657;SDS011;42530;52.240;19.354;2022-08-21T10:09:59;7.25;;;6.75;;
56657;SDS011;42530;52.240;19.354;2022-08-21T10:12:47;8.07;;;6.47;;
56657;SDS011;42530;52.240;19.354;2022-08-21T10:31:32;7.85;;;6.75;;
56657;SDS011;42530;52.240;19.354;2022-08-21T10:34:06;7.53;;;6.75;;
56657;SDS011;42530;52.240;19.354;2022-08-21T10:36:36;6.85;;;6.35;;
56657;SDS011;42530;52.240;19.354;2022-08-21T10:39:15;7.60;;;7.10;;
56657;SDS011;42530;52.240;19.354;2022-08-21T10:47:57;6.93;;;6.43;;
56657;SDS011;42530;52.240;19.354;2022-08-21T10:50:33;6.63;;;6.03;;
56657;SDS011;42530;52.240;19.354;2022-08-21T10:55:43;8.90;;;6.60;;
56657;SDS011;42530;52.240;19.354;2022-08-21T10:58:23;5.95;;;5.55;;
56657;SDS011;42530;52.240;19.354;2022-08-21T11:00:58;7.60;;;6.25;;
56657;SDS011;42530;52.240;19.354;2022-08-21T11:03:43;6.07;;;5.45;;
56657;SDS011;42530;52.240;19.354;2022-08-21T11:06:16;6.90;;;6.38;;
56657;SDS011;42530;52.240;19.354;2022-08-21T11:08:51;7.20;;;6.55;;
56657;SDS011;42530;52.240;19.354;2022-08-21T11:11:26;7.22;;;6.10;;
56657;SDS011;42530;52.240;19.354;2022-08-21T11:13:54;6.18;;;5.68;;
56657;SDS011;42530;52.240;19.354;2022-08-21T11:19:43;6.03;;;5.35;;
56657;SDS011;42530;52.240;19.354;2022-08-21T11:25:35;6.75;;;6.15;;
56657;SDS011;42530;52.240;19.354;2022-08-21T11:27:52;6.75;;;5.50;;
56657;SDS011;42530;52.240;19.354;2022-08-21T11:30:24;6.60;;;6.10;;
56657;SDS011;42530;52.240;19.354;2022-08-21T11:35:46;5.00;;;4.65;;
56657;SDS011;42530;52.240;19.354;2022-08-21T11:38:22;6.20;;;5.60;;
56657;SDS011;42530;52.240;19.354;2022-08-21T11:57:03;5.32;;;4.78;;
56657;SDS011;42530;52.240;19.354;2022-08-21T11:59:40;4.95;;;4.25;;
56657;SDS011;42530;52.240;19.354;2022-08-21T12:02:14;4.97;;;4.50;;
56657;SDS011;42530;52.240;19.354;2022-08-21T12:04:47;6.68;;;4.38;;
56657;SDS011;42530;52.240;19.354;2022-08-21T12:07:40;4.63;;;4.22;;
56657;SDS011;42530;52.240;19.354;2022-08-21T12:10:07;4.13;;;3.83;;
56657;SDS011;42530;52.240;19.354;2022-08-21T12:12:37;4.28;;;3.85;;
56657;SDS011;42530;52.240;19.354;2022-08-21T12:15:11;7.40;;;4.68;;
56657;SDS011;42530;52.240;19.354;2022-08-21T12:23:14;4.43;;;3.88;;
56657;SDS011;42530;52.240;19.354;2022-08-21T12:25:46;4.53;;;3.90;;
56657;SDS011;42530;52.240;19.354;2022-08-21T12:28:25;4.60;;;4.07;;
56657;SDS011;42530;52.240;19.354;2022-08-21T12:30:52;6.00;;;4.50;;
56657;SDS011;42530;52.240;19.354;2022-08-21T12:33:37;4.05;;;3.63;;
56657;SDS011;42530;52.240;19.354;2022-08-21T12:36:10;4.00;;;3.72;;
56657;SDS011;42530;52.240;19.354;2022-08-21T12:41:10;5.15;;;4.75;;
56657;SDS011;42530;52.240;19.354;2022-08-21T12:43:43;6.43;;;5.90;;
56657;SDS011;42530;52.240;19.354;2022-08-21T12:46:19;5.57;;;5.25;;
56657;SDS011;42530;52.240;19.354;2022-08-21T12:49:00;7.38;;;5.57;;
56657;SDS011;42530;52.240;19.354;2022-08-21T12:51:45;5.90;;;5.38;;
56657;SDS011;42530;52.240;19.354;2022-08-21T12:54:30;8.02;;;6.70;;
56657;SDS011;42530;52.240;19.354;2022-08-21T12:59:28;7.43;;;6.10;;
56657;SDS011;42530;52.240;19.354;2022-08-21T13:01:55;6.20;;;5.78;;
56657;SDS011;42530;52.240;19.354;2022-08-21T13:04:33;6.57;;;5.90;;
56657;SDS011;42530;52.240;19.354;2022-08-21T13:07:04;6.55;;;5.97;;
56657;SDS011;42530;52.240;19.354;2022-08-21T13:09:32;6.97;;;6.30;;
56657;SDS011;42530;52.240;19.354;2022-08-21T13:11:58;5.45;;;5.05;;
56657;SDS011;42530;52.240;19.354;2022-08-21T13:16:56;6.00;;;5.50;;
56657;SDS011;42530;52.240;19.354;2022-08-21T13:19:24;6.03;;;5.53;;
56657;SDS011;42530;52.240;19.354;2022-08-21T13:21:50;6.43;;;5.90;;
56657;SDS011;42530;52.240;19.354;2022-08-21T13:24:30;6.07;;;5.40;;
56657;SDS011;42530;52.240;19.354;2022-08-21T13:26:59;6.18;;;5.57;;
56657;SDS011;42530;52.240;19.354;2022-08-21T13:29:28;6.88;;;5.68;;
56657;SDS011;42530;52.240;19.354;2022-08-21T13:31:57;5.45;;;4.95;;
56657;SDS011;42530;52.240;19.354;2022-08-21T13:34:26;7.75;;;7.10;;
56657;SDS011;42530;52.240;19.354;2022-08-21T13:36:57;6.22;;;5.72;;
56657;SDS011;42530;52.240;19.354;2022-08-21T13:39:25;6.45;;;5.90;;
56657;SDS011;42530;52.240;19.354;2022-08-21T13:41:53;5.75;;;5.35;;
56657;SDS011;42530;52.240;19.354;2022-08-21T13:44:32;5.70;;;5.13;;
56657;SDS011;42530;52.240;19.354;2022-08-21T13:47:01;5.88;;;5.47;;
56657;SDS011;42530;52.240;19.354;2022-08-21T13:49:32;6.93;;;6.22;;
56657;SDS011;42530;52.240;19.354;2022-08-21T13:52:01;5.57;;;5.18;;
56657;SDS011;42530;52.240;19.354;2022-08-21T13:54:35;6.68;;;5.97;;
56657;SDS011;42530;52.240;19.354;2022-08-21T13:57:02;6.57;;;6.07;;
56657;SDS011;42530;52.240;19.354;2022-08-21T13:59:30;7.18;;;6.57;;
56657;SDS011;42530;52.240;19.354;2022-08-21T14:02:16;7.22;;;6.60;;
56657;SDS011;42530;52.240;19.354;2022-08-21T14:04:51;9.90;;;7.68;;
56657;SDS011;42530;52.240;19.354;2022-08-21T14:07:22;7.60;;;6.82;;
56657;SDS011;42530;52.240;19.354;2022-08-21T14:09:52;7.22;;;6.63;;
56657;SDS011;42530;52.240;19.354;2022-08-21T14:12:31;10.45;;;7.68;;
56657;SDS011;42530;52.240;19.354;2022-08-21T14:15:05;7.82;;;7.05;;
56657;SDS011;42530;52.240;19.354;2022-08-21T14:17:34;7.78;;;7.07;;
56657;SDS011;42530;52.240;19.354;2022-08-21T14:20:05;8.88;;;6.05;;
56657;SDS011;42530;52.240;19.354;2022-08-21T14:22:38;7.55;;;6.85;;
56657;SDS011;42530;52.240;19.354;2022-08-21T14:25:09;11.13;;;6.25;;
56657;SDS011;42530;52.240;19.354;2022-08-21T14:30:32;7.43;;;6.70;;
56657;SDS011;42530;52.240;19.354;2022-08-21T14:33:00;12.68;;;11.30;;
56657;SDS011;42530;52.240;19.354;2022-08-21T14:35:28;15.15;;;13.63;;
56657;SDS011;42530;52.240;19.354;2022-08-21T14:37:54;17.02;;;15.48;;
56657;SDS011;42530;52.240;19.354;2022-08-21T14:40:22;16.45;;;14.82;;
56657;SDS011;42530;52.240;19.354;2022-08-21T14:42:49;17.13;;;15.50;;
56657;SDS011;42530;52.240;19.354;2022-08-21T14:45:17;21.40;;;17.98;;
56657;SDS011;42530;52.240;19.354;2022-08-21T14:47:45;16.55;;;14.88;;
56657;SDS011;42530;52.240;19.354;2022-08-21T14:50:11;18.50;;;16.23;;
56657;SDS011;42530;52.240;19.354;2022-08-21T14:52:38;17.85;;;16.20;;
56657;SDS011;42530;52.240;19.354;2022-08-21T14:55:05;20.92;;;18.92;;
56657;SDS011;42530;52.240;19.354;2022-08-21T14:57:32;21.65;;;19.58;;
56657;SDS011;42530;52.240;19.354;2022-08-21T14:59:59;19.35;;;17.55;;
56657;SDS011;42530;52.240;19.354;2022-08-21T15:02:25;21.05;;;18.83;;
56657;SDS011;42530;52.240;19.354;2022-08-21T15:04:51;21.15;;;19.17;;
56657;SDS011;42530;52.240;19.354;2022-08-21T15:07:18;20.33;;;18.63;;
56657;SDS011;42530;52.240;19.354;2022-08-21T15:09:43;23.42;;;21.33;;
56657;SDS011;42530;52.240;19.354;2022-08-21T15:12:09;19.33;;;17.63;;
56657;SDS011;42530;52.240;19.354;2022-08-21T15:14:38;19.63;;;17.73;;
56657;SDS011;42530;52.240;19.354;2022-08-21T15:17:06;21.50;;;19.38;;
56657;SDS011;42530;52.240;19.354;2022-08-21T15:19:33;19.20;;;17.60;;
56657;SDS011;42530;52.240;19.354;2022-08-21T15:21:59;17.58;;;15.95;;
56657;SDS011;42530;52.240;19.354;2022-08-21T15:24:25;22.35;;;20.25;;
56657;SDS011;42530;52.240;19.354;2022-08-21T15:26:51;19.70;;;17.90;;
56657;SDS011;42530;52.240;19.354;2022-08-21T15:29:17;20.13;;;18.15;;
56657;SDS011;42530;52.240;19.354;2022-08-21T15:34:44;19.08;;;17.38;;
56657;SDS011;42530;52.240;19.354;2022-08-21T15:37:09;25.42;;;18.70;;
56657;SDS011;42530;52.240;19.354;2022-08-21T15:39:35;17.15;;;14.73;;
56657;SDS011;42530;52.240;19.354;2022-08-21T15:42:01;15.68;;;14.32;;
56657;SDS011;42530;52.240;19.354;2022-08-21T15:44:28;17.02;;;14.27;;
56657;SDS011;42530;52.240;19.354;2022-08-21T15:46:54;14.35;;;12.93;;
56657;SDS011;42530;52.240;19.354;2022-08-21T15:49:21;16.02;;;14.73;;
56657;SDS011;42530;52.240;19.354;2022-08-21T15:51:48;16.23;;;14.73;;
56657;SDS011;42530;52.240;19.354;2022-08-21T15:54:13;15.60;;;14.38;;
56657;SDS011;42530;52.240;19.354;2022-08-21T15:56:39;15.38;;;13.48;;
56657;SDS011;42530;52.240;19.354;2022-08-21T15:59:09;14.05;;;12.32;;
56657;SDS011;42530;52.240;19.354;2022-08-21T16:01:38;8.77;;;8.07;;
56657;SDS011;42530;52.240;19.354;2022-08-21T16:04:04;8.63;;;7.93;;
56657;SDS011;42530;52.240;19.354;2022-08-21T16:06:31;4.22;;;3.92;;
56657;SDS011;42530;52.240;19.354;2022-08-21T16:08:57;3.92;;;3.58;;
56657;SDS011;42530;52.240;19.354;2022-08-21T16:11:23;3.20;;;2.85;;
56657;SDS011;42530;52.240;19.354;2022-08-21T16:13:49;4.40;;;3.35;;
56657;SDS011;42530;52.240;19.354;2022-08-21T16:16:19;4.18;;;3.75;;